createdAt,value
2023-05-09T00:00:57.977Z,93796.06
2023-05-09T00:03:25.939Z,93790.69
2023-05-09T00:05:54.037Z,93796.34
2023-05-09T00:08:22.196Z,93791.50
2023-05-09T00:10:50.067Z,93785.03
2023-05-09T00:13:18.144Z,93792.53
2023-05-09T00:15:46.880Z,93789.31
2023-05-09T00:18:14.944Z,93783.66
2023-05-09T00:20:44.435Z,93786.88
2023-05-09T00:23:12.591Z,93787.44
2023-05-09T00:25:40.514Z,93792.25
2023-05-09T00:28:08.733Z,93788.13
2023-05-09T00:30:36.639Z,93789.22
2023-05-09T00:33:04.713Z,93789.22
2023-05-09T00:35:32.638Z,93786.56
2023-05-09T00:38:00.628Z,93788.31
2023-05-09T00:40:28.613Z,93789.75
2023-05-09T00:42:58.892Z,93787.69
2023-05-09T00:45:27.047Z,93786.69
2023-05-09T00:47:55.916Z,93781.34
2023-05-09T00:50:26.416Z,93759.09
2023-05-09T00:52:55.003Z,93786.25
2023-05-09T00:55:23.497Z,93786.25
2023-05-09T00:57:51.700Z,93789.75
2023-05-09T01:00:19.830Z,93785.66
2023-05-09T01:02:53.244Z,93784.09
2023-05-09T01:05:25.229Z,93788.66
2023-05-09T01:08:36.169Z,93794.03
2023-05-09T01:11:15.369Z,93787.09
2023-05-09T01:13:54.990Z,93784.16
2023-05-09T01:16:39.901Z,93786.81
2023-05-09T01:19:26.868Z,93787.81
2023-05-09T01:21:59.635Z,93778.91
2023-05-09T01:25:00.670Z,93783.41
2023-05-09T01:27:44.775Z,93783.47
2023-05-09T01:30:14.235Z,93781.91
2023-05-09T01:32:44.195Z,93784.91
2023-05-09T01:35:14.984Z,93779.78
2023-05-09T01:37:45.540Z,93787.06
2023-05-09T01:40:16.937Z,93787.09
2023-05-09T01:42:51.646Z,93785.97
2023-05-09T01:45:21.032Z,93796.06
2023-05-09T01:47:50.690Z,93779.75
2023-05-09T01:50:20.368Z,93797.00
2023-05-09T01:52:53.608Z,93797.97
2023-05-09T01:55:27.510Z,93797.50
2023-05-09T01:57:57.908Z,93786.53
2023-05-09T02:00:26.329Z,93794.88
2023-05-09T02:02:56.472Z,93797.03
2023-05-09T02:05:28.636Z,93803.19
2023-05-09T02:07:58.692Z,93790.31
2023-05-09T02:10:30.995Z,93792.66
2023-05-09T02:12:58.898Z,93793.53
2023-05-09T02:15:27.682Z,93800.47
2023-05-09T02:17:55.616Z,93797.28
2023-05-09T02:20:23.780Z,93795.72
2023-05-09T02:22:51.778Z,93788.47
2023-05-09T02:25:20.958Z,93788.19
2023-05-09T02:27:49.069Z,93790.59
2023-05-09T02:30:25.472Z,93786.53
2023-05-09T02:33:07.518Z,93781.41
2023-05-09T02:35:38.139Z,93789.75
2023-05-09T02:38:07.301Z,93790.31
2023-05-09T02:40:36.738Z,93791.91
2023-05-09T02:43:04.636Z,93793.78
2023-05-09T02:45:32.764Z,93787.31
2023-05-09T02:48:00.873Z,93795.75
2023-05-09T02:50:28.844Z,93791.19
2023-05-09T02:54:42.339Z,93793.88
2023-05-09T02:57:10.526Z,93781.59
2023-05-09T02:59:38.508Z,93767.81
2023-05-09T03:02:06.732Z,93795.50
2023-05-09T03:04:34.861Z,93794.97
2023-05-09T03:07:02.930Z,93799.44
2023-05-09T03:09:33.811Z,93802.41
2023-05-09T03:12:02.759Z,93802.59
2023-05-09T03:14:31.648Z,93800.53
2023-05-09T03:16:59.936Z,93800.28
2023-05-09T03:19:33.856Z,93813.66
2023-05-09T03:22:01.906Z,93820.47
2023-05-09T03:24:33.003Z,93825.53
2023-05-09T03:27:01.081Z,93823.78
2023-05-09T03:29:29.130Z,93823.44
2023-05-09T03:31:57.088Z,93828.88
2023-05-09T03:34:25.183Z,93815.97
2023-05-09T03:36:53.195Z,93832.97
2023-05-09T03:39:21.800Z,93838.81
2023-05-09T03:41:54.484Z,93832.72
2023-05-09T03:44:22.455Z,93841.00
2023-05-09T03:46:50.628Z,93840.19
2023-05-09T03:49:18.768Z,93831.78
2023-05-09T03:51:49.196Z,93841.22
2023-05-09T03:54:17.815Z,93847.91
2023-05-09T03:56:45.943Z,93816.63
2023-05-09T03:59:13.803Z,93841.13
2023-05-09T04:01:42.688Z,93844.34
2023-05-09T04:04:10.920Z,93837.84
2023-05-09T04:06:39.386Z,93847.16
2023-05-09T04:09:09.665Z,93854.91
2023-05-09T04:11:38.082Z,93847.28
2023-05-09T04:14:10.950Z,93852.19
2023-05-09T04:16:38.927Z,93850.97
2023-05-09T04:19:07.459Z,93861.97
2023-05-09T04:21:36.835Z,93858.97
2023-05-09T04:24:06.481Z,93862.31
2023-05-09T04:26:41.268Z,93858.47
2023-05-09T04:29:12.864Z,93850.81
2023-05-09T04:31:41.287Z,93859.31
2023-05-09T04:34:12.083Z,93867.78
2023-05-09T04:36:40.814Z,93849.84
2023-05-09T04:39:10.614Z,93860.09
2023-05-09T04:41:44.046Z,93861.69
2023-05-09T04:44:12.201Z,93856.06
2023-05-09T04:46:40.652Z,93860.66
2023-05-09T04:49:09.701Z,93851.97
2023-05-09T04:51:37.644Z,93863.91
2023-05-09T04:54:07.066Z,93862.97
2023-05-09T04:56:38.607Z,93859.31
2023-05-09T04:59:06.841Z,93860.16
2023-05-09T05:01:35.145Z,93862.59
2023-05-09T05:04:03.352Z,93860.91
2023-05-09T05:06:33.398Z,93860.56
2023-05-09T05:09:01.602Z,93858.09
2023-05-09T05:11:29.527Z,93864.09
2023-05-09T05:13:57.651Z,93859.72
2023-05-09T05:16:26.081Z,93860.53
2023-05-09T05:18:54.283Z,93860.16
2023-05-09T05:21:22.966Z,93852.63
2023-05-09T05:23:50.952Z,93857.84
2023-05-09T05:26:18.999Z,93861.69
2023-05-09T05:28:47.127Z,93857.53
2023-05-09T05:31:15.484Z,93852.16
2023-05-09T05:33:43.387Z,93860.75
2023-05-09T05:36:11.494Z,93859.75
2023-05-09T05:38:39.585Z,93861.63
2023-05-09T05:41:11.414Z,93871.81
2023-05-09T05:43:41.493Z,93855.03
2023-05-09T05:46:09.892Z,93867.13
2023-05-09T05:48:38.808Z,93869.50
2023-05-09T05:51:06.961Z,93865.25
2023-05-09T05:53:36.900Z,93870.25
2023-05-09T05:56:05.374Z,93868.78
2023-05-09T05:58:34.213Z,93879.50
2023-05-09T06:01:02.921Z,93876.50
2023-05-09T06:03:32.429Z,93876.91
2023-05-09T06:06:03.977Z,93869.81
2023-05-09T06:08:32.942Z,93868.69
2023-05-09T06:11:01.665Z,93872.69
2023-05-09T06:13:29.764Z,93858.63
2023-05-09T06:16:17.939Z,93873.22
2023-05-09T06:18:49.342Z,93862.28
2023-05-09T06:21:17.408Z,93871.75
2023-05-09T06:24:01.356Z,93878.00
2023-05-09T06:26:33.763Z,93879.97
2023-05-09T06:29:01.725Z,93869.47
2023-05-09T06:31:30.080Z,93876.97
2023-05-09T06:33:58.080Z,93875.25
2023-05-09T06:36:26.521Z,93881.63
2023-05-09T06:38:54.853Z,93869.84
2023-05-09T06:41:22.836Z,93874.03
2023-05-09T06:43:51.269Z,93879.59
2023-05-09T06:46:19.714Z,93883.06
2023-05-09T06:48:47.861Z,93876.06
2023-05-09T06:51:16.598Z,93876.09
2023-05-09T06:53:44.378Z,93884.06
2023-05-09T06:56:12.594Z,93874.72
2023-05-09T06:58:40.750Z,93867.47
2023-05-09T07:01:08.808Z,93873.28
2023-05-09T07:03:36.973Z,93883.66
2023-05-09T07:06:05.312Z,93868.72
2023-05-09T07:08:33.375Z,93870.47
2023-05-09T07:11:01.456Z,93860.88
2023-05-09T07:13:29.396Z,93871.88
2023-05-09T07:15:58.055Z,93882.00
2023-05-09T07:18:25.956Z,93870.91
2023-05-09T07:20:53.910Z,93868.72
2023-05-09T07:23:22.018Z,93873.63
2023-05-09T07:25:49.887Z,93874.56
2023-05-09T07:28:17.964Z,93876.72
2023-05-09T07:30:46.182Z,93875.28
2023-05-09T07:33:14.208Z,93876.00
2023-05-09T07:35:42.141Z,93890.03
2023-05-09T07:38:11.311Z,93885.03
2023-05-09T07:40:39.395Z,93885.06
2023-05-09T07:43:07.518Z,93881.41
2023-05-09T07:45:35.725Z,93880.06
2023-05-09T07:48:04.051Z,93890.31
2023-05-09T07:50:32.098Z,93884.41
2023-05-09T07:53:00.391Z,93880.47
2023-05-09T07:55:28.505Z,93878.97
2023-05-09T07:57:56.791Z,93881.84
2023-05-09T08:00:25.003Z,93880.00
2023-05-09T08:02:53.759Z,93868.34
2023-05-09T08:05:24.687Z,93870.75
2023-05-09T08:07:52.670Z,93870.69
2023-05-09T08:10:22.112Z,93872.13
2023-05-09T08:12:50.181Z,93870.88
2023-05-09T08:15:18.477Z,93867.41
2023-05-09T08:17:46.565Z,93867.16
2023-05-09T08:20:14.875Z,93866.06
2023-05-09T08:22:42.913Z,93855.59
2023-05-09T08:25:11.160Z,93874.06
2023-05-09T08:27:39.091Z,93880.72
2023-05-09T08:30:07.735Z,93876.00
2023-05-09T08:32:35.620Z,93877.81
2023-05-09T08:35:04.114Z,93882.19
2023-05-09T08:37:32.082Z,93863.94
2023-05-09T08:40:00.047Z,93877.63
2023-05-09T08:42:30.051Z,93874.22
2023-05-09T08:44:58.935Z,93863.50
2023-05-09T08:47:27.532Z,93865.34
2023-05-09T08:49:55.681Z,93868.41
2023-05-09T08:52:23.813Z,93873.56
2023-05-09T08:54:52.305Z,93874.16
2023-05-09T08:57:20.563Z,93874.94
2023-05-09T08:59:49.932Z,93863.13
2023-05-09T09:02:18.346Z,93874.34
2023-05-09T09:04:47.064Z,93873.13
2023-05-09T09:07:16.243Z,93874.06
2023-05-09T09:09:49.097Z,93871.72
2023-05-09T09:12:18.582Z,93863.53
2023-05-09T09:14:54.216Z,93864.38
2023-05-09T09:17:28.377Z,93872.06
2023-05-09T09:20:00.487Z,93874.13
2023-05-09T09:22:34.133Z,93871.00
2023-05-09T09:25:02.754Z,93868.66
2023-05-09T09:27:32.510Z,93866.16
2023-05-09T09:30:07.911Z,93862.66
2023-05-09T09:32:36.622Z,93859.19
2023-05-09T09:35:08.573Z,93868.38
2023-05-09T09:37:43.794Z,93871.91
2023-05-09T09:40:12.839Z,93869.69
2023-05-09T09:42:45.737Z,93865.16
2023-05-09T09:45:16.759Z,93867.47
2023-05-09T09:47:46.787Z,93874.34
2023-05-09T09:50:17.466Z,93865.88
2023-05-09T09:52:53.870Z,93866.34
2023-05-09T09:55:24.327Z,93869.84
2023-05-09T09:57:52.873Z,93868.00
2023-05-09T10:00:27.800Z,93871.22
2023-05-09T10:02:57.009Z,93871.22
2023-05-09T10:05:26.926Z,93869.19
2023-05-09T10:08:00.923Z,93867.16
2023-05-09T10:10:33.491Z,93863.94
2023-05-09T10:13:10.457Z,93864.00
2023-05-09T10:15:52.179Z,93862.69
2023-05-09T10:18:30.167Z,93861.63
2023-05-09T10:21:04.012Z,93858.94
2023-05-09T10:23:34.663Z,93858.88
2023-05-09T10:26:29.066Z,93858.09
2023-05-09T10:29:00.874Z,93853.47
2023-05-09T10:31:33.016Z,93849.31
2023-05-09T10:34:05.846Z,93859.38
2023-05-09T10:36:34.504Z,93854.13
2023-05-09T10:39:02.813Z,93847.34
2023-05-09T10:41:31.578Z,93858.06
2023-05-09T10:44:00.220Z,93860.81
2023-05-09T10:46:28.728Z,93864.44
2023-05-09T10:48:56.877Z,93866.25
2023-05-09T10:51:25.612Z,93866.31
2023-05-09T10:53:56.033Z,93858.88
2023-05-09T10:56:32.594Z,93866.03
2023-05-09T10:59:02.918Z,93875.41
2023-05-09T11:01:35.192Z,93874.97
2023-05-09T11:04:14.823Z,93866.47
2023-05-09T11:06:47.956Z,93862.84
2023-05-09T11:09:39.292Z,93859.94
2023-05-09T11:12:15.177Z,93869.84
2023-05-09T11:14:48.881Z,93868.81
2023-05-09T11:17:23.210Z,93871.38
2023-05-09T11:19:51.590Z,93869.63
2023-05-09T11:22:42.479Z,93865.72
2023-05-09T11:25:15.377Z,93872.31
2023-05-09T11:27:46.264Z,93860.47
2023-05-09T11:30:19.361Z,93872.63
2023-05-09T11:32:55.807Z,93873.63
2023-05-09T11:35:26.946Z,93843.34
2023-05-09T11:38:07.982Z,93877.31
2023-05-09T11:40:36.060Z,93873.22
2023-05-09T11:43:04.024Z,93874.16
2023-05-09T11:45:33.766Z,93874.41
2023-05-09T11:48:02.363Z,93868.19
2023-05-09T11:50:30.527Z,93863.78
2023-05-09T11:53:07.387Z,93870.38
2023-05-09T11:55:38.224Z,93870.25
2023-05-09T11:58:07.660Z,93874.56
2023-05-09T12:00:37.510Z,93870.59
2023-05-09T12:03:06.326Z,93875.41
2023-05-09T12:05:34.514Z,93878.03
2023-05-09T12:08:07.251Z,93868.88
2023-05-09T12:10:39.258Z,93876.75
2023-05-09T12:13:07.382Z,93874.22
2023-05-09T12:15:39.103Z,93879.13
2023-05-09T12:18:09.178Z,93875.69
2023-05-09T12:20:44.940Z,93858.66
2023-05-09T12:23:14.773Z,93861.47
2023-05-09T12:25:53.044Z,93862.66
2023-05-09T12:28:25.313Z,93851.09
2023-05-09T12:30:54.463Z,93861.25
2023-05-09T12:33:22.745Z,93858.13
2023-05-09T12:36:03.521Z,93847.66
2023-05-09T12:38:32.150Z,93858.34
2023-05-09T12:41:10.723Z,93857.94
2023-05-09T12:43:49.657Z,93860.41
2023-05-09T12:46:22.337Z,93858.78
2023-05-09T12:48:50.430Z,93855.19
2023-05-09T12:51:22.659Z,93858.34
2023-05-09T12:53:51.035Z,93853.28
2023-05-09T12:56:21.062Z,93847.50
2023-05-09T12:58:51.458Z,93857.94
2023-05-09T13:01:21.249Z,93851.41
2023-05-09T13:03:54.010Z,93860.41
2023-05-09T13:06:24.479Z,93849.13
2023-05-09T13:09:06.533Z,93849.91
2023-05-09T13:11:35.704Z,93813.22
2023-05-09T13:14:04.402Z,93857.16
2023-05-09T13:16:32.336Z,93849.38
2023-05-09T13:19:01.899Z,93852.63
2023-05-09T13:21:29.887Z,93846.13
2023-05-09T13:23:57.910Z,93845.06
2023-05-09T13:26:27.555Z,93854.31
2023-05-09T13:28:56.174Z,93846.34
2023-05-09T13:31:24.553Z,93843.72
2023-05-09T13:33:52.938Z,93848.56
2023-05-09T13:36:21.260Z,93849.03
2023-05-09T13:38:49.385Z,93838.72
2023-05-09T13:41:21.088Z,93842.34
2023-05-09T13:43:49.107Z,93836.75
2023-05-09T13:46:17.166Z,93835.81
2023-05-09T13:48:45.482Z,93826.13
2023-05-09T13:51:14.136Z,93818.69
2023-05-09T13:53:42.264Z,93824.50
2023-05-09T13:56:10.167Z,93829.09
2023-05-09T13:58:38.383Z,93830.84
2023-05-09T14:01:07.732Z,93826.88
2023-05-09T14:03:36.021Z,93826.22
2023-05-09T14:06:04.621Z,93826.50
2023-05-09T14:08:33.307Z,93822.09
2023-05-09T14:11:02.075Z,93820.78
2023-05-09T14:13:32.253Z,93822.72
2023-05-09T14:16:00.571Z,93824.47
2023-05-09T14:18:28.545Z,93814.09
2023-05-09T14:20:56.989Z,93815.03
2023-05-09T14:23:25.341Z,93817.88
2023-05-09T14:25:53.593Z,93820.81
2023-05-09T14:28:22.381Z,93817.09
2023-05-09T14:30:50.443Z,93824.78
2023-05-09T14:33:18.540Z,93821.25
2023-05-09T14:35:46.509Z,93824.72
2023-05-09T14:38:14.614Z,93818.00
2023-05-09T14:40:42.581Z,93824.16
2023-05-09T14:43:10.789Z,93826.97
2023-05-09T14:45:39.460Z,93825.66
2023-05-09T14:48:07.756Z,93817.09
2023-05-09T14:50:35.844Z,93812.56
2023-05-09T14:53:04.093Z,93802.06
2023-05-09T14:55:32.678Z,93815.66
2023-05-09T14:58:00.563Z,93804.47
2023-05-09T15:00:29.472Z,93803.09
2023-05-09T15:02:57.952Z,93812.56
2023-05-09T15:05:26.076Z,93819.81
2023-05-09T15:07:54.315Z,93817.94
2023-05-09T15:10:22.552Z,93819.28
2023-05-09T15:12:50.452Z,93819.34
2023-05-09T15:15:20.909Z,93814.19
2023-05-09T15:17:49.427Z,93810.97
2023-05-09T15:20:20.821Z,93810.69
2023-05-09T15:22:51.068Z,93817.16
2023-05-09T15:25:30.039Z,93808.31
2023-05-09T15:27:59.747Z,93796.84
2023-05-09T15:30:28.721Z,93816.94
2023-05-09T15:32:56.916Z,93814.91
2023-05-09T15:35:25.404Z,93818.88
2023-05-09T15:37:54.933Z,93817.84
2023-05-09T15:40:23.211Z,93813.28
2023-05-09T15:42:51.636Z,93813.09
2023-05-09T15:45:20.695Z,93820.19
2023-05-09T15:47:49.327Z,93813.28
2023-05-09T15:50:18.134Z,93807.00
2023-05-09T15:52:46.753Z,93806.22
2023-05-09T15:55:14.996Z,93809.81
2023-05-09T15:57:45.499Z,93815.78
2023-05-09T16:00:16.783Z,93817.03
2023-05-09T16:02:45.523Z,93829.56
2023-05-09T16:05:13.903Z,93822.81
2023-05-09T16:07:47.191Z,93804.56
2023-05-09T16:10:16.566Z,93825.09
2023-05-09T16:12:45.051Z,93823.34
2023-05-09T16:15:13.090Z,93823.41
2023-05-09T16:17:41.730Z,93820.69
2023-05-09T16:20:13.948Z,93818.88
2023-05-09T16:22:43.076Z,93823.72
2023-05-09T16:25:11.465Z,93831.06
2023-05-09T16:27:39.631Z,93826.03
2023-05-09T16:30:08.633Z,93823.66
2023-05-09T16:32:37.088Z,93827.81
2023-05-09T16:35:06.209Z,93822.34
2023-05-09T16:37:35.575Z,93825.53
2023-05-09T16:40:04.882Z,93829.50
2023-05-09T16:42:33.450Z,93830.56
2023-05-09T16:45:02.148Z,93831.38
2023-05-09T16:47:30.598Z,93832.88
2023-05-09T16:49:59.516Z,93839.16
2023-05-09T16:52:27.775Z,93833.53
2023-05-09T16:54:56.353Z,93836.91
2023-05-09T16:57:24.780Z,93844.47
2023-05-09T16:59:54.313Z,93837.81
2023-05-09T17:02:23.201Z,93841.31
2023-05-09T17:04:52.255Z,93841.56
2023-05-09T17:07:20.457Z,93846.19
2023-05-09T17:09:49.931Z,93845.16
2023-05-09T17:12:18.715Z,93849.50
2023-05-09T17:14:48.249Z,93835.94
2023-05-09T17:17:18.016Z,93840.63
2023-05-09T17:19:46.383Z,93839.75
2023-05-09T17:22:14.793Z,93840.13
2023-05-09T17:24:43.214Z,93835.31
2023-05-09T17:27:11.804Z,93837.25
2023-05-09T17:29:40.180Z,93854.03
2023-05-09T17:32:09.010Z,93847.97
2023-05-09T17:34:38.178Z,93852.34
2023-05-09T17:37:07.639Z,93849.19
2023-05-09T17:39:39.452Z,93846.19
2023-05-09T17:42:08.119Z,93849.59
2023-05-09T17:44:36.772Z,93849.03
2023-05-09T17:47:05.475Z,93855.00
2023-05-09T17:49:34.146Z,93859.75
2023-05-09T17:52:02.516Z,93867.91
2023-05-09T17:54:31.145Z,93861.78
2023-05-09T17:57:02.178Z,93870.81
2023-05-09T17:59:30.614Z,93865.34
2023-05-09T18:01:59.094Z,93869.13
2023-05-09T18:04:30.740Z,93859.25
2023-05-09T18:06:59.170Z,93861.88
2023-05-09T18:09:28.348Z,93870.97
2023-05-09T18:11:56.895Z,93866.13
2023-05-09T18:14:25.429Z,93868.34
2023-05-09T18:16:53.937Z,93851.94
2023-05-09T18:19:22.375Z,93873.59
2023-05-09T18:21:51.161Z,93870.91
2023-05-09T18:24:21.646Z,93875.97
2023-05-09T18:26:50.598Z,93859.50
2023-05-09T18:29:19.253Z,93851.81
2023-05-09T18:31:47.725Z,93872.75
2023-05-09T18:34:16.168Z,93876.31
2023-05-09T18:36:44.752Z,93878.03
2023-05-09T18:39:14.450Z,93881.00
2023-05-09T18:41:43.686Z,93882.22
2023-05-09T18:44:11.849Z,93886.81
2023-05-09T18:46:40.319Z,93886.44
2023-05-09T18:49:10.027Z,93881.34
2023-05-09T18:51:38.618Z,93885.13
2023-05-09T18:54:08.338Z,93881.41
2023-05-09T18:56:39.743Z,93865.34
2023-05-09T18:59:10.101Z,93880.06
2023-05-09T19:01:38.607Z,93875.31
2023-05-09T19:04:07.371Z,93889.72
2023-05-09T19:06:36.113Z,93886.16
2023-05-09T19:09:04.778Z,93887.94
2023-05-09T19:11:33.263Z,93882.63
2023-05-09T19:14:02.357Z,93881.91
2023-05-09T19:16:31.677Z,93881.25
2023-05-09T19:19:01.507Z,93873.19
2023-05-09T19:21:30.190Z,93875.66
2023-05-09T19:23:58.669Z,93879.13
2023-05-09T19:26:27.131Z,93879.16
2023-05-09T19:28:55.826Z,93882.75
2023-05-09T19:31:25.761Z,93876.53
2023-05-09T19:33:54.323Z,93872.59
2023-05-09T19:36:22.974Z,93880.66
2023-05-09T19:38:51.370Z,93877.38
2023-05-09T19:41:20.471Z,93877.19
2023-05-09T19:43:51.161Z,93879.06
2023-05-09T19:46:19.704Z,93879.00
2023-05-09T19:48:48.188Z,93880.59
2023-05-09T19:51:16.843Z,93867.28
2023-05-09T19:53:45.268Z,93874.78
2023-05-09T19:56:14.122Z,93876.66
2023-05-09T19:58:42.666Z,93871.66
2023-05-09T20:01:11.135Z,93872.22
2023-05-09T20:03:41.081Z,93871.81
2023-05-09T20:06:10.043Z,93872.97
2023-05-09T20:08:38.020Z,93867.94
2023-05-09T20:11:06.379Z,93876.75
2023-05-09T20:13:34.846Z,93876.88
2023-05-09T20:16:04.526Z,93869.38
2023-05-09T20:18:33.712Z,93868.59
2023-05-09T20:21:02.694Z,93865.59
2023-05-09T20:23:31.526Z,93861.06
2023-05-09T20:26:00.027Z,93866.63
2023-05-09T20:28:28.432Z,93863.97
2023-05-09T20:30:56.666Z,93862.34
2023-05-09T20:33:24.765Z,93863.09
2023-05-09T20:35:52.889Z,93857.34
2023-05-09T20:38:21.234Z,93855.09
2023-05-09T20:40:49.330Z,93856.09
2023-05-09T20:43:17.241Z,93857.25
2023-05-09T20:45:45.375Z,93857.50
2023-05-09T20:48:13.958Z,93859.28
2023-05-09T20:50:41.910Z,93854.38
2023-05-09T20:53:09.959Z,93852.88
2023-05-09T20:55:38.207Z,93849.50
2023-05-09T20:58:06.395Z,93849.13
2023-05-09T21:00:34.511Z,93848.00
2023-05-09T21:03:02.933Z,93846.31
2023-05-09T21:05:31.046Z,93850.66
2023-05-09T21:07:59.126Z,93844.44
2023-05-09T21:10:27.366Z,93848.31
2023-05-09T21:12:55.741Z,93844.59
2023-05-09T21:15:23.949Z,93836.91
2023-05-09T21:17:51.954Z,93850.50
2023-05-09T21:20:20.177Z,93848.13
2023-05-09T21:22:48.197Z,93839.50
2023-05-09T21:25:17.654Z,93840.47
2023-05-09T21:27:45.498Z,93842.16
2023-05-09T21:30:13.836Z,93848.09
2023-05-09T21:32:41.971Z,93845.69
2023-05-09T21:35:12.907Z,93846.53
2023-05-09T21:37:41.174Z,93834.81
2023-05-09T21:40:09.864Z,93840.72
2023-05-09T21:42:40.286Z,93840.72
2023-05-09T21:45:08.904Z,93846.84
2023-05-09T21:47:39.839Z,93840.09
2023-05-09T21:50:08.337Z,93844.59
2023-05-09T21:52:36.243Z,93842.72
2023-05-09T21:55:04.524Z,93839.50
2023-05-09T21:57:32.468Z,93841.72
2023-05-09T22:00:01.712Z,93824.34
2023-05-09T22:02:29.874Z,93835.09
2023-05-09T22:04:58.071Z,93830.91
2023-05-09T22:07:26.024Z,93833.00
2023-05-09T22:09:54.310Z,93831.75
2023-05-09T22:12:23.255Z,93824.22
2023-05-09T22:14:56.195Z,93829.63
2023-05-09T22:17:25.052Z,93832.72
2023-05-09T22:19:52.971Z,93834.59
2023-05-09T22:22:21.711Z,93824.38
2023-05-09T22:24:49.975Z,93827.19
2023-05-09T22:27:17.920Z,93825.47
2023-05-09T22:29:46.752Z,93824.00
2023-05-09T22:32:14.736Z,93826.75
2023-05-09T22:34:42.710Z,93822.13
2023-05-09T22:37:10.650Z,93824.88
2023-05-09T22:39:39.490Z,93823.19
2023-05-09T22:42:10.021Z,93816.22
2023-05-09T22:44:39.271Z,93805.16
2023-05-09T22:47:09.860Z,93808.63
2023-05-09T22:49:37.833Z,93815.69
2023-05-09T22:52:19.974Z,93814.53
2023-05-09T22:54:47.911Z,93807.41
2023-05-09T22:57:18.368Z,93807.75
2023-05-09T22:59:47.008Z,93807.41
2023-05-09T23:02:15.018Z,93807.03
2023-05-09T23:04:43.022Z,93805.66
2023-05-09T23:07:11.001Z,93804.28
2023-05-09T23:09:39.296Z,93806.38
2023-05-09T23:12:09.800Z,93804.72
2023-05-09T23:14:38.294Z,93800.94
2023-05-09T23:17:06.173Z,93802.41
2023-05-09T23:19:34.067Z,93796.88
2023-05-09T23:22:02.033Z,93795.84
2023-05-09T23:24:29.880Z,93795.97
2023-05-09T23:26:58.257Z,93799.09
2023-05-09T23:29:26.308Z,93794.81
2023-05-09T23:31:54.384Z,93792.97
2023-05-09T23:34:22.496Z,93801.75
2023-05-09T23:36:50.356Z,93797.00
2023-05-09T23:39:18.651Z,93801.16
2023-05-09T23:41:46.527Z,93791.78
2023-05-09T23:44:15.009Z,93793.53
2023-05-09T23:46:42.945Z,93795.38
2023-05-09T23:49:13.357Z,93786.84
2023-05-09T23:51:41.450Z,93782.69
2023-05-09T23:54:09.256Z,93790.97
2023-05-09T23:56:37.288Z,93784.00
2023-05-09T23:59:05.314Z,93788.97
